Terminal Aerodrome Forecast
Issued by NWS

Home | Current Version | Previous Version | Text Only | Print | Product List | Glossary On
Versions: 1 2 3 4 5 6 7 8 9 10 11 12 13 14 15 16 17 18 19 20 21 22
000
FTUS44 KTSA 270520
TAFMLC
TAF
KMLC 270520Z 2706/2806 17011G20KT P6SM BKN025
      TEMPO 2707/2711 VRB15G25KT -TSRA BKN025CB
     FM271100 17009KT P6SM OVC015
      TEMPO 2713/2717 4SM -TSRA OVC007CB
     FM271800 17011G18KT P6SM VCTS BKN020CB
      TEMPO 2720/2724 2SM +TSRA OVC015CB
     FM280300 16009KT P6SM SCT050 SCT250=

USA.gov is the U.S. government's official web portal to all federal, state and local government web resources and services.